Time;durP1;ratioP1;P1;durP2;ratioP2;P2;SDS_P1;SDS_P2;PMS_P1;PMS_P2;Temp;Humidity;BMP_temperature;BMP_pressure;BME280_temperature;BME280_humidity;BME280_pressure;Samples;Min_cycle;Max_cycle;Signal;HPM_P1;HPM_P2
2020/12/29 00:00:27;;;;;;;3.33;3.03;;;3.10;99.90;;;;;;5071941;28;20218;-75
2020/12/29 00:02:53;;;;;;;5.33;3.07;;;3.10;99.90;;;;;;5070371;28;20668;-75
2020/12/29 00:05:18;;;;;;;4.03;2.70;;;3.10;99.90;;;;;;5071041;28;20206;-75
2020/12/29 00:07:53;;;;;;;3.43;2.43;;;3.10;99.90;;;;;;5069574;28;20263;-74
2020/12/29 00:10:23;;;;;;;2.20;2.00;;;3.10;99.90;;;;;;5056265;28;20210;-75
2020/12/29 00:12:50;;;;;;;2.50;2.23;;;3.00;99.90;;;;;;5075138;28;20440;-75
2020/12/29 00:15:15;;;;;;;3.40;2.40;;;3.00;99.90;;;;;;5070843;28;20453;-75
2020/12/29 00:17:41;;;;;;;4.77;2.83;;;3.00;99.90;;;;;;5072131;28;20433;-75
2020/12/29 00:20:07;;;;;;;3.37;3.07;;;2.90;99.90;;;;;;5051660;28;20234;-75
2020/12/29 00:22:33;;;;;;;3.70;3.03;;;2.90;99.90;;;;;;5070908;28;20556;-75
2020/12/29 00:24:58;;;;;;;3.87;3.10;;;2.90;99.90;;;;;;5074478;28;20199;-74
2020/12/29 00:27:24;;;;;;;3.57;2.60;;;2.90;99.90;;;;;;5057058;28;20534;-74
2020/12/29 00:29:50;;;;;;;3.33;3.03;;;2.80;99.90;;;;;;5075765;28;20273;-75
2020/12/29 00:32:15;;;;;;;3.43;2.93;;;2.80;99.90;;;;;;5072020;28;20599;-75
2020/12/29 00:34:41;;;;;;;4.40;3.00;;;2.80;99.90;;;;;;5069822;28;20211;-75
2020/12/29 00:37:06;;;;;;;3.73;3.37;;;2.80;99.90;;;;;;5055892;28;20183;-75
2020/12/29 00:39:32;;;;;;;4.50;2.90;;;2.80;99.90;;;;;;5070581;28;20244;-75
2020/12/29 00:41:57;;;;;;;3.70;3.40;;;2.70;99.90;;;;;;5068415;28;20227;-74
2020/12/29 00:44:24;;;;;;;3.43;2.47;;;2.70;99.90;;;;;;5052627;28;20191;-75
2020/12/29 00:46:50;;;;;;;4.37;3.20;;;2.70;99.90;;;;;;5071124;28;20233;-75
2020/12/29 00:49:16;;;;;;;3.43;2.97;;;2.70;99.90;;;;;;5070247;28;20452;-74
2020/12/29 00:51:41;;;;;;;4.37;3.43;;;2.60;99.90;;;;;;5070245;28;20453;-74
2020/12/29 00:54:07;;;;;;;5.33;4.83;;;2.60;99.90;;;;;;5069370;28;20274;-75
2020/12/29 00:56:32;;;;;;;4.00;3.60;;;2.60;99.90;;;;;;5069246;28;20199;-75
2020/12/29 00:58:58;;;;;;;7.00;3.33;;;2.60;99.90;;;;;;5074348;28;20650;-75
2020/12/29 01:01:23;;;;;;;4.00;3.70;;;2.60;99.90;;;;;;5071781;28;20199;-75
2020/12/29 01:03:49;;;;;;;4.47;3.63;;;2.60;99.90;;;;;;5051815;28;20230;-75
2020/12/29 01:06:14;;;;;;;4.33;3.77;;;2.60;99.90;;;;;;5070168;28;20188;-75
2020/12/29 01:08:40;;;;;;;4.00;3.60;;;2.60;99.90;;;;;;5072499;28;20275;-75
2020/12/29 01:11:05;;;;;;;6.43;3.53;;;2.50;99.90;;;;;;5074468;28;20597;-75
2020/12/29 01:13:31;;;;;;;3.67;3.30;;;2.50;99.90;;;;;;5055029;28;20183;-75
2020/12/29 01:15:57;;;;;;;5.50;3.50;;;2.50;99.90;;;;;;5056898;28;20261;-75
2020/12/29 01:18:22;;;;;;;6.67;3.83;;;2.40;99.90;;;;;;5054779;28;20933;-74
2020/12/29 01:20:49;;;;;;;4.10;3.70;;;2.40;99.90;;;;;;5070820;28;20234;-75
2020/12/29 01:23:15;;;;;;;4.23;3.83;;;2.40;99.90;;;;;;5067527;28;20245;-75
2020/12/29 01:25:42;;;;;;;4.17;3.67;;;2.40;99.90;;;;;;5068884;28;20445;-75
2020/12/29 01:28:08;;;;;;;11.80;6.90;;;2.40;99.90;;;;;;5073512;28;20445;-75
2020/12/29 01:30:34;;;;;;;7.50;5.67;;;2.40;99.90;;;;;;5060697;28;20524;-75
2020/12/29 01:33:00;;;;;;;8.50;6.17;;;2.40;99.90;;;;;;5051129;28;21377;-75
2020/12/29 01:35:26;;;;;;;13.03;7.90;;;2.40;99.90;;;;;;5051170;28;20438;-75
2020/12/29 01:37:51;;;;;;;15.73;9.90;;;2.30;99.90;;;;;;5074012;28;20741;-75
2020/12/29 01:40:16;;;;;;;9.80;6.80;;;2.30;99.90;;;;;;5055174;28;20569;-75
2020/12/29 01:42:44;;;;;;;9.40;6.90;;;2.30;99.90;;;;;;5069938;28;20215;-75
2020/12/29 01:45:13;;;;;;;7.90;6.27;;;2.30;99.90;;;;;;5070034;28;20223;-75
2020/12/29 01:47:40;;;;;;;7.03;5.60;;;2.30;99.90;;;;;;5070248;28;20560;-75
2020/12/29 01:50:14;;;;;;;5.20;3.90;;;2.30;99.90;;;;;;5070771;28;20452;-74
2020/12/29 01:52:40;;;;;;;3.80;3.13;;;2.30;99.90;;;;;;5069870;28;20476;-75
2020/12/29 01:55:07;;;;;;;3.23;2.87;;;2.30;99.90;;;;;;5070587;28;20728;-75
2020/12/29 01:57:34;;;;;;;3.77;3.37;;;2.30;99.90;;;;;;5073140;28;20760;-75
2020/12/29 02:00:01;;;;;;;3.23;2.93;;;2.30;99.90;;;;;;5073392;28;20436;-75
2020/12/29 02:02:29;;;;;;;12.80;4.50;;;2.30;99.90;;;;;;5069792;28;20516;-75
2020/12/29 02:04:55;;;;;;;5.87;3.70;;;2.30;99.90;;;;;;5068939;28;20484;-75
2020/12/29 02:07:21;;;;;;;5.30;3.97;;;2.30;99.90;;;;;;5074125;28;20440;-75
2020/12/29 02:09:47;;;;;;;4.83;4.33;;;2.40;99.90;;;;;;5054981;28;20499;-75
2020/12/29 02:12:30;;;;;;;7.67;5.13;;;2.40;99.90;;;;;;5074413;28;20927;-75
2020/12/29 02:14:56;;;;;;;8.10;4.43;;;2.50;99.90;;;;;;5071850;28;20447;-74
2020/12/29 02:17:23;;;;;;;6.20;3.70;;;2.60;99.90;;;;;;5054170;28;20523;-75
2020/12/29 02:19:49;;;;;;;3.43;2.80;;;2.70;99.90;;;;;;5073965;28;20452;-75
2020/12/29 02:22:26;;;;;;;4.07;3.10;;;2.70;99.90;;;;;;5080380;28;20465;-75
2020/12/29 02:24:53;;;;;;;3.67;3.10;;;2.80;99.90;;;;;;5073998;28;20884;-75
2020/12/29 02:27:20;;;;;;;6.93;3.53;;;2.80;99.90;;;;;;5074367;28;20429;-75
2020/12/29 02:29:46;;;;;;;5.80;3.93;;;2.80;99.90;;;;;;5072497;28;22822;-75
2020/12/29 02:32:12;;;;;;;3.50;3.17;;;2.70;99.90;;;;;;5054157;28;20494;-75
2020/12/29 02:34:39;;;;;;;5.50;3.40;;;2.70;99.90;;;;;;5071920;28;20438;-75
2020/12/29 02:37:06;;;;;;;8.27;4.07;;;2.70;99.90;;;;;;5054209;28;20537;-74
2020/12/29 02:39:33;;;;;;;4.40;4.00;;;2.60;99.90;;;;;;5072745;28;20440;-74
2020/12/29 02:41:59;;;;;;;8.07;3.70;;;2.50;99.90;;;;;;5059903;28;20604;-74
2020/12/29 02:44:24;;;;;;;6.43;3.77;;;2.50;99.90;;;;;;5075309;28;20531;-75
2020/12/29 02:46:51;;;;;;;8.37;4.53;;;2.50;99.90;;;;;;5071450;28;20728;-74
2020/12/29 02:49:17;;;;;;;4.23;3.77;;;2.50;99.90;;;;;;5072943;28;20238;-75
2020/12/29 02:51:43;;;;;;;5.90;3.37;;;2.50;99.90;;;;;;5055487;28;20430;-74
2020/12/29 02:54:15;;;;;;;5.93;4.03;;;2.50;99.90;;;;;;5071614;28;20440;-74
2020/12/29 02:56:42;;;;;;;5.70;4.20;;;2.50;99.90;;;;;;5081316;28;20738;-75
2020/12/29 02:59:08;;;;;;;63.67;32.50;;;2.50;99.90;;;;;;5070576;28;20433;-75
2020/12/29 03:01:34;;;;;;;37.73;20.90;;;2.40;99.90;;;;;;5072207;28;21072;-75
2020/12/29 03:03:59;;;;;;;35.57;17.70;;;2.40;99.90;;;;;;5052713;28;20994;-74
2020/12/29 03:06:25;;;;;;;19.33;11.07;;;2.40;99.90;;;;;;5072634;28;20270;-75
2020/12/29 03:08:51;;;;;;;18.00;11.50;;;2.30;99.90;;;;;;5073345;28;20191;-74
2020/12/29 03:11:24;;;;;;;18.50;10.30;;;2.30;99.90;;;;;;5073280;28;20252;-74
2020/12/29 03:13:50;;;;;;;14.47;9.10;;;2.30;99.90;;;;;;5070957;28;20191;-75
2020/12/29 03:16:15;;;;;;;14.27;10.43;;;2.30;99.90;;;;;;5071855;28;20439;-75
2020/12/29 03:18:41;;;;;;;5.37;4.50;;;2.30;99.90;;;;;;5075285;28;20188;-75
2020/12/29 03:21:06;;;;;;;5.33;4.70;;;2.30;99.90;;;;;;5073714;28;21969;-74
2020/12/29 03:23:32;;;;;;;5.30;4.00;;;2.40;99.90;;;;;;5054600;28;20243;-75
2020/12/29 03:25:57;;;;;;;5.27;4.40;;;2.50;99.90;;;;;;5071839;28;20657;-75
2020/12/29 03:28:23;;;;;;;6.80;4.57;;;2.60;99.90;;;;;;5059081;28;20222;-75
2020/12/29 03:30:48;;;;;;;6.13;3.70;;;2.70;99.90;;;;;;5052732;28;20581;-75
2020/12/29 03:33:14;;;;;;;4.30;3.70;;;2.70;99.90;;;;;;5053276;28;20212;-75
2020/12/29 03:35:39;;;;;;;5.67;4.17;;;2.80;99.90;;;;;;5072182;28;20214;-74
2020/12/29 03:38:05;;;;;;;3.67;3.37;;;2.90;99.90;;;;;;5070612;28;20192;-75
2020/12/29 03:40:30;;;;;;;4.50;3.93;;;3.00;99.90;;;;;;5072997;28;20211;-75
2020/12/29 03:42:56;;;;;;;3.80;3.40;;;3.00;99.90;;;;;;5071120;28;20253;-75
2020/12/29 03:45:21;;;;;;;3.50;2.93;;;3.10;99.90;;;;;;5072157;28;20325;-75
2020/12/29 03:47:47;;;;;;;4.00;3.17;;;3.10;99.90;;;;;;5056068;28;20648;-75
2020/12/29 03:50:12;;;;;;;3.10;2.87;;;3.20;99.90;;;;;;5084824;28;20251;-75
2020/12/29 03:52:38;;;;;;;4.17;3.23;;;3.30;99.90;;;;;;5071417;28;20196;-75
2020/12/29 03:55:03;;;;;;;5.00;3.07;;;3.30;99.90;;;;;;5074244;28;20175;-75
2020/12/29 03:57:29;;;;;;;5.47;3.43;;;3.30;99.90;;;;;;5072516;28;20194;-75
2020/12/29 03:59:54;;;;;;;4.30;3.30;;;3.30;99.90;;;;;;5071503;28;20656;-75
2020/12/29 04:02:20;;;;;;;4.80;3.90;;;3.40;99.90;;;;;;5070246;28;20298;-75
2020/12/29 04:04:45;;;;;;;3.00;2.80;;;3.30;99.90;;;;;;5053214;28;20192;-75
2020/12/29 04:07:11;;;;;;;5.00;3.83;;;3.40;99.90;;;;;;5071421;28;20270;-75
2020/12/29 04:09:36;;;;;;;4.03;3.40;;;3.30;99.90;;;;;;5076080;28;20198;-75
2020/12/29 04:12:02;;;;;;;3.07;2.73;;;3.40;99.90;;;;;;5070735;28;20184;-75
2020/12/29 04:14:27;;;;;;;4.30;3.50;;;3.30;99.90;;;;;;5070293;28;20264;-75
2020/12/29 04:16:55;;;;;;;4.93;4.07;;;3.30;99.90;;;;;;5069485;28;20198;-75
2020/12/29 04:19:20;;;;;;;4.17;3.00;;;3.40;99.90;;;;;;5073832;28;20207;-75
2020/12/29 04:21:46;;;;;;;4.20;3.80;;;3.30;99.90;;;;;;5070393;28;20495;-75
2020/12/29 04:24:12;;;;;;;5.37;3.50;;;3.40;99.90;;;;;;5071525;28;20202;-74
2020/12/29 04:26:37;;;;;;;5.70;4.13;;;3.40;99.90;;;;;;5071150;28;20179;-75
2020/12/29 04:29:03;;;;;;;5.70;3.40;;;3.40;99.90;;;;;;5073201;28;20192;-75
2020/12/29 04:31:28;;;;;;;3.70;3.00;;;3.40;99.90;;;;;;5070531;28;20194;-75
2020/12/29 04:33:54;;;;;;;4.90;3.73;;;3.50;99.90;;;;;;5069915;28;20225;-74
2020/12/29 04:36:19;;;;;;;3.90;3.60;;;3.50;99.90;;;;;;5069439;28;20248;-75
2020/12/29 04:38:45;;;;;;;3.97;3.10;;;3.50;99.90;;;;;;5080348;28;20194;-75
2020/12/29 04:41:10;;;;;;;4.20;3.50;;;3.50;99.90;;;;;;5072965;28;20246;-75
2020/12/29 04:43:37;;;;;;;4.13;3.23;;;3.60;99.90;;;;;;5070576;28;20342;-75
2020/12/29 04:46:04;;;;;;;3.87;3.47;;;3.60;99.90;;;;;;5070798;28;20187;-75
2020/12/29 04:48:31;;;;;;;9.50;4.20;;;3.60;99.90;;;;;;5071790;28;20991;-75
2020/12/29 04:51:02;;;;;;;5.13;3.53;;;3.60;99.90;;;;;;5069897;28;20437;-75
2020/12/29 04:53:34;;;;;;;5.10;3.10;;;3.70;99.90;;;;;;5070619;28;20426;-75
2020/12/29 04:56:07;;;;;;;5.07;4.53;;;3.70;99.90;;;;;;5049892;28;20437;-74
2020/12/29 04:58:34;;;;;;;4.77;3.90;;;3.80;99.90;;;;;;5070064;28;20437;-75
2020/12/29 05:01:06;;;;;;;8.77;4.30;;;3.80;99.90;;;;;;5068994;28;20425;-75
2020/12/29 05:03:48;;;;;;;8.27;4.53;;;3.80;99.90;;;;;;5069484;28;20569;-75
2020/12/29 05:06:14;;;;;;;4.17;3.67;;;3.90;99.90;;;;;;5069911;28;20428;-75
2020/12/29 05:08:47;;;;;;;3.93;3.40;;;3.90;99.90;;;;;;5052025;28;20437;-75
2020/12/29 05:11:13;;;;;;;5.43;3.83;;;3.90;99.90;;;;;;5073945;28;20468;-75
2020/12/29 05:13:39;;;;;;;5.30;4.13;;;3.90;99.90;;;;;;5069779;28;20464;-75
2020/12/29 05:16:06;;;;;;;5.73;4.00;;;3.90;99.90;;;;;;5069546;28;20448;-75
2020/12/29 05:18:31;;;;;;;4.30;3.90;;;3.90;99.90;;;;;;5072882;28;20525;-75
2020/12/29 05:20:57;;;;;;;3.70;3.40;;;3.90;99.90;;;;;;5075379;28;20543;-75
2020/12/29 05:23:22;;;;;;;6.60;3.83;;;3.90;99.90;;;;;;5071455;28;20233;-75
2020/12/29 05:25:49;;;;;;;4.33;3.93;;;4.00;99.90;;;;;;5050668;28;20196;-75
2020/12/29 05:28:15;;;;;;;4.07;3.70;;;4.00;99.90;;;;;;5075760;28;20179;-75
2020/12/29 05:30:40;;;;;;;3.93;3.60;;;4.00;99.90;;;;;;5054159;28;20433;-75
2020/12/29 05:33:11;;;;;;;4.30;3.57;;;4.00;99.90;;;;;;5071914;28;20179;-75
2020/12/29 05:35:38;;;;;;;5.13;4.57;;;4.00;99.90;;;;;;5069758;28;20274;-75
2020/12/29 05:38:05;;;;;;;4.00;3.60;;;4.10;99.90;;;;;;5071630;28;20511;-75
2020/12/29 05:40:31;;;;;;;4.70;3.97;;;4.10;99.90;;;;;;5074469;28;20436;-75
2020/12/29 05:42:59;;;;;;;7.23;4.23;;;4.10;99.90;;;;;;5073068;28;20472;-75
2020/12/29 05:45:26;;;;;;;4.10;3.70;;;4.20;99.90;;;;;;5071854;28;20215;-75
2020/12/29 05:47:54;;;;;;;4.47;3.87;;;4.10;99.90;;;;;;5071469;28;20470;-75
2020/12/29 05:50:21;;;;;;;7.57;4.60;;;4.10;99.90;;;;;;5055580;28;20437;-75
2020/12/29 05:52:59;;;;;;;7.00;4.03;;;4.10;99.90;;;;;;5070506;28;20464;-75
2020/12/29 05:55:25;;;;;;;4.40;4.00;;;4.10;99.90;;;;;;5069869;28;20441;-75
2020/12/29 05:58:21;;;;;;;4.37;4.00;;;4.00;99.90;;;;;;5069162;28;20437;-75
2020/12/29 06:00:48;;;;;;;5.40;4.20;;;4.00;99.90;;;;;;5057775;28;20521;-75
2020/12/29 06:03:14;;;;;;;6.10;4.83;;;3.90;99.90;;;;;;5068733;28;21034;-75
2020/12/29 06:05:39;;;;;;;4.97;4.57;;;3.90;99.90;;;;;;5054076;28;20710;-75
2020/12/29 06:08:07;;;;;;;4.93;4.40;;;3.80;99.90;;;;;;5070812;28;20432;-75
2020/12/29 06:10:34;;;;;;;4.87;4.47;;;3.70;99.90;;;;;;5070023;28;20287;-75
2020/12/29 06:13:05;;;;;;;5.57;4.90;;;3.70;99.90;;;;;;5066993;28;20510;-74
2020/12/29 06:15:32;;;;;;;6.83;4.33;;;3.60;99.90;;;;;;5068224;28;20491;-75
2020/12/29 06:18:05;;;;;;;5.17;4.67;;;3.50;99.90;;;;;;5077318;28;20512;-75
2020/12/29 06:20:45;;;;;;;5.27;4.80;;;3.50;99.90;;;;;;5070097;28;20473;-75
2020/12/29 06:23:15;;;;;;;9.53;5.77;;;3.50;99.90;;;;;;5051431;28;20469;-75
2020/12/29 06:25:44;;;;;;;8.30;5.30;;;3.40;99.90;;;;;;5068858;28;21057;-75
2020/12/29 06:28:14;;;;;;;6.57;5.93;;;3.30;99.90;;;;;;5052009;28;20978;-75
2020/12/29 06:30:41;;;;;;;6.43;5.47;;;3.30;99.90;;;;;;5068477;28;20434;-75
2020/12/29 06:33:07;;;;;;;5.53;5.03;;;3.20;99.90;;;;;;5073784;28;20497;-75
2020/12/29 06:35:33;;;;;;;6.87;5.20;;;3.20;99.90;;;;;;5069429;28;20448;-74
2020/12/29 06:38:18;;;;;;;7.70;5.33;;;3.10;99.90;;;;;;5068943;28;20926;-75
2020/12/29 06:40:46;;;;;;;6.40;5.30;;;3.00;99.90;;;;;;5074040;28;20193;-75
2020/12/29 06:43:12;;;;;;;6.43;5.13;;;3.00;99.90;;;;;;5067936;28;20505;-75
2020/12/29 06:45:39;;;;;;;6.00;5.40;;;2.90;99.90;;;;;;5069058;28;20449;-75
2020/12/29 06:48:16;;;;;;;7.17;5.70;;;2.90;99.90;;;;;;5060297;28;20436;-75
2020/12/29 06:50:41;;;;;;;8.20;6.17;;;2.90;99.90;;;;;;5050624;28;20428;-75
2020/12/29 06:53:07;;;;;;;8.27;7.27;;;2.80;99.90;;;;;;5069169;28;20491;-74
2020/12/29 06:55:37;;;;;;;7.00;6.30;;;2.80;99.90;;;;;;5074025;28;20231;-75
2020/12/29 06:58:04;;;;;;;6.97;6.17;;;2.80;99.90;;;;;;5079208;28;20188;-75
2020/12/29 07:00:30;;;;;;;5.90;5.27;;;2.80;99.90;;;;;;5075858;28;20451;-75
2020/12/29 07:02:56;;;;;;;6.70;6.03;;;2.70;99.90;;;;;;5073737;28;20476;-75
2020/12/29 07:05:29;;;;;;;7.83;6.77;;;2.70;99.90;;;;;;5072725;28;20186;-74
2020/12/29 07:07:56;;;;;;;7.80;6.23;;;2.70;99.90;;;;;;5071963;28;20228;-75
2020/12/29 07:10:26;;;;;;;8.70;7.10;;;2.70;99.90;;;;;;5075327;28;21018;-74
2020/12/29 07:12:52;;;;;;;8.30;7.27;;;2.60;99.90;;;;;;5073407;28;20445;-74
2020/12/29 07:15:22;;;;;;;7.90;7.10;;;2.60;99.90;;;;;;5055835;28;20985;-75
2020/12/29 07:17:58;;;;;;;10.00;7.50;;;2.60;99.90;;;;;;5076553;28;20951;-74
2020/12/29 07:20:35;;;;;;;8.17;7.13;;;2.60;99.90;;;;;;5071340;28;20458;-75
2020/12/29 07:23:06;;;;;;;11.30;8.40;;;2.60;99.90;;;;;;5071933;28;20485;-75
2020/12/29 07:25:33;;;;;;;10.70;7.80;;;2.60;99.90;;;;;;5053655;28;20968;-75
2020/12/29 07:28:03;;;;;;;9.10;8.20;;;2.60;99.90;;;;;;5076492;28;20446;-75
2020/12/29 07:30:30;;;;;;;9.23;7.57;;;2.60;99.90;;;;;;5054806;28;20437;-75
2020/12/29 07:33:02;;;;;;;9.47;8.40;;;2.50;99.90;;;;;;5072931;28;20485;-75
2020/12/29 07:35:30;;;;;;;12.07;8.50;;;2.50;99.90;;;;;;5071484;28;20445;-75
2020/12/29 07:37:57;;;;;;;11.00;9.47;;;2.50;99.90;;;;;;5071676;28;20567;-74
2020/12/29 07:40:25;;;;;;;10.90;9.60;;;2.50;99.90;;;;;;5076265;28;20462;-75
2020/12/29 07:42:52;;;;;;;9.17;8.27;;;2.50;99.90;;;;;;5053894;28;20474;-75
2020/12/29 07:45:18;;;;;;;10.80;9.47;;;2.50;99.90;;;;;;5055075;28;20465;-75
2020/12/29 07:47:44;;;;;;;10.63;9.33;;;2.50;99.90;;;;;;5071891;28;20548;-74
2020/12/29 07:50:09;;;;;;;10.67;9.70;;;2.50;99.90;;;;;;5059182;28;20317;-75
2020/12/29 07:52:35;;;;;;;12.53;10.60;;;2.50;99.90;;;;;;5073477;28;20580;-75
2020/12/29 07:55:18;;;;;;;13.00;10.40;;;2.50;99.90;;;;;;5071376;28;20202;-75
2020/12/29 07:57:44;;;;;;;10.80;9.70;;;2.50;99.90;;;;;;5072072;28;20187;-75
2020/12/29 08:00:15;;;;;;;14.10;12.07;;;2.50;99.90;;;;;;5072632;28;20447;-75
2020/12/29 08:02:49;;;;;;;13.60;11.37;;;2.50;99.90;;;;;;5071355;28;20207;-75
2020/12/29 08:05:15;;;;;;;10.83;9.73;;;2.50;99.90;;;;;;5053068;28;20433;-75
2020/12/29 08:07:40;;;;;;;11.80;10.70;;;2.50;99.90;;;;;;5053137;28;20438;-75
2020/12/29 08:10:06;;;;;;;13.57;11.10;;;2.60;99.90;;;;;;5074973;28;20187;-75
2020/12/29 08:12:32;;;;;;;12.40;10.83;;;2.60;99.90;;;;;;5072347;28;20248;-75
2020/12/29 08:14:57;;;;;;;13.13;11.67;;;2.60;99.90;;;;;;5074617;28;20188;-74
2020/12/29 08:17:23;;;;;;;14.67;12.80;;;2.70;99.90;;;;;;5072443;28;20191;-75
2020/12/29 08:19:59;;;;;;;12.87;11.53;;;2.70;99.90;;;;;;5054331;28;20590;-74
2020/12/29 08:22:27;;;;;;;16.53;12.27;;;2.80;99.90;;;;;;5071021;28;20211;-75
2020/12/29 08:24:53;;;;;;;14.93;11.90;;;2.90;99.90;;;;;;5052182;28;21048;-74
2020/12/29 08:27:19;;;;;;;13.23;11.93;;;2.90;99.90;;;;;;5072584;28;20434;-75
2020/12/29 08:29:45;;;;;;;14.33;11.87;;;3.00;99.90;;;;;;5071449;28;20797;-75
2020/12/29 08:32:12;;;;;;;13.27;11.20;;;3.20;99.90;;;;;;5069497;28;20618;-75
2020/12/29 08:34:40;;;;;;;13.10;10.73;;;3.30;99.90;;;;;;5070212;28;20438;-74
2020/12/29 08:37:09;;;;;;;13.93;11.13;;;3.40;99.90;;;;;;5051464;28;20438;-75
2020/12/29 08:40:09;;;;;;;10.50;9.50;;;3.60;99.90;;;;;;5071336;28;20476;-75
2020/12/29 08:42:35;;;;;;;10.03;8.73;;;3.70;99.90;;;;;;5038801;28;20488;-75
2020/12/29 08:45:06;;;;;;;11.20;10.10;;;3.70;99.90;;;;;;5051114;28;21053;-75
2020/12/29 08:47:32;;;;;;;17.57;9.83;;;3.80;99.90;;;;;;5077650;28;20582;-75
2020/12/29 08:50:18;;;;;;;11.17;7.80;;;3.90;99.90;;;;;;5052276;28;20501;-75
2020/12/29 08:52:43;;;;;;;10.13;9.13;;;3.90;99.90;;;;;;5052432;28;20441;-75
2020/12/29 08:55:26;;;;;;;9.00;7.50;;;4.00;99.90;;;;;;5069808;28;20437;-75
2020/12/29 08:57:57;;;;;;;9.57;8.17;;;4.00;99.90;;;;;;5056867;28;20661;-75
2020/12/29 09:00:24;;;;;;;8.83;8.03;;;4.00;99.90;;;;;;5070496;28;20958;-75
2020/12/29 09:02:50;;;;;;;10.83;7.30;;;4.10;99.90;;;;;;5069447;28;20457;-75
2020/12/29 09:05:24;;;;;;;12.83;9.20;;;4.10;99.90;;;;;;5056305;28;20498;-75
2020/12/29 09:07:50;;;;;;;8.10;7.30;;;4.20;99.90;;;;;;5070407;28;20299;-75
2020/12/29 09:10:17;;;;;;;9.20;6.93;;;4.20;99.90;;;;;;5056749;28;20496;-75
2020/12/29 09:12:42;;;;;;;8.40;7.40;;;4.30;99.90;;;;;;5078101;28;20440;-75
2020/12/29 09:15:10;;;;;;;10.63;8.27;;;4.30;99.90;;;;;;5069272;28;20437;-75
2020/12/29 09:17:40;;;;;;;8.60;7.37;;;4.40;99.90;;;;;;5053641;28;20191;-75
2020/12/29 09:20:22;;;;;;;9.50;7.40;;;4.40;99.90;;;;;;5051143;28;20469;-74
2020/12/29 09:23:18;;;;;;;8.80;7.40;;;4.40;99.90;;;;;;5069050;28;20469;-75
2020/12/29 09:25:44;;;;;;;11.13;7.40;;;4.50;99.90;;;;;;5053300;28;20965;-75
2020/12/29 09:28:20;;;;;;;11.93;7.97;;;4.50;99.90;;;;;;5071504;28;20431;-75
2020/12/29 09:31:10;;;;;;;9.10;7.63;;;4.60;99.90;;;;;;5070484;28;20432;-75
2020/12/29 09:33:37;;;;;;;8.00;7.07;;;4.60;99.90;;;;;;5051227;28;20583;-75
2020/12/29 09:36:04;;;;;;;7.50;6.60;;;4.60;99.90;;;;;;5072316;28;20456;-75
2020/12/29 09:38:33;;;;;;;6.90;6.30;;;4.60;99.90;;;;;;5068315;28;20564;-75
2020/12/29 09:41:00;;;;;;;10.50;6.77;;;4.60;99.90;;;;;;5062082;28;20438;-75
2020/12/29 09:43:26;;;;;;;8.43;7.63;;;4.70;99.90;;;;;;5053353;28;20495;-75
2020/12/29 09:45:52;;;;;;;11.87;8.43;;;4.80;99.90;;;;;;5069764;28;20942;-75
2020/12/29 09:48:18;;;;;;;9.90;7.80;;;4.80;99.90;;;;;;5073562;28;20442;-75
2020/12/29 09:50:44;;;;;;;9.80;6.63;;;4.80;99.90;;;;;;5050762;28;20430;-75
2020/12/29 09:53:09;;;;;;;10.43;8.50;;;4.90;99.90;;;;;;5050099;28;20179;-75
2020/12/29 09:55:36;;;;;;;9.40;8.40;;;4.90;99.90;;;;;;5071863;28;20195;-75
2020/12/29 09:58:02;;;;;;;8.73;7.77;;;5.00;99.90;;;;;;5072017;28;20196;-75
2020/12/29 10:00:28;;;;;;;9.23;7.53;;;5.00;99.90;;;;;;5069309;28;20939;-75
2020/12/29 10:02:53;;;;;;;7.63;6.73;;;5.00;99.90;;;;;;5069191;28;20219;-75
2020/12/29 10:05:19;;;;;;;9.50;8.40;;;4.90;99.90;;;;;;5050624;28;20187;-75
2020/12/29 10:07:45;;;;;;;10.17;9.17;;;5.00;99.90;;;;;;5073278;28;20962;-75
2020/12/29 10:10:11;;;;;;;8.40;7.50;;;5.00;99.90;;;;;;5056232;28;20179;-75
2020/12/29 10:12:37;;;;;;;11.70;8.60;;;5.00;99.90;;;;;;5071443;28;20444;-75
2020/12/29 10:15:05;;;;;;;11.27;8.30;;;5.00;99.90;;;;;;5069210;28;20329;-75
2020/12/29 10:17:30;;;;;;;11.50;8.80;;;4.90;99.90;;;;;;5080928;28;20735;-75
2020/12/29 10:19:56;;;;;;;9.10;8.20;;;4.80;99.90;;;;;;5069889;28;20594;-75
2020/12/29 10:22:22;;;;;;;9.00;7.80;;;4.80;99.90;;;;;;5067744;28;20200;-75
2020/12/29 10:24:48;;;;;;;9.93;7.93;;;4.80;99.90;;;;;;5073248;28;20436;-75
2020/12/29 10:27:13;;;;;;;11.50;9.70;;;4.80;99.90;;;;;;5069442;28;20422;-75
2020/12/29 10:29:39;;;;;;;10.90;7.97;;;4.80;99.90;;;;;;5057027;28;20642;-75
2020/12/29 10:32:04;;;;;;;11.00;9.90;;;4.70;99.90;;;;;;5072681;28;20290;-75
2020/12/29 10:34:30;;;;;;;14.53;9.33;;;4.70;99.90;;;;;;5072736;28;20274;-75
2020/12/29 10:36:55;;;;;;;10.13;9.13;;;4.70;99.90;;;;;;5056613;28;20183;-75
2020/12/29 10:39:21;;;;;;;9.80;8.70;;;4.70;99.90;;;;;;5075114;28;20243;-75
2020/12/29 10:41:47;;;;;;;14.87;10.77;;;4.70;99.90;;;;;;5060756;28;20183;-75
2020/12/29 10:44:12;;;;;;;17.07;10.67;;;4.60;99.90;;;;;;5053460;28;20231;-75
2020/12/29 10:46:38;;;;;;;14.73;11.20;;;4.50;99.90;;;;;;5080832;28;20332;-74
2020/12/29 10:49:04;;;;;;;13.70;11.13;;;4.50;99.90;;;;;;5065435;28;20578;-75
2020/12/29 10:51:31;;;;;;;13.80;12.50;;;4.50;99.90;;;;;;5055091;28;20186;-75
2020/12/29 10:53:56;;;;;;;16.57;13.17;;;4.50;99.90;;;;;;5074542;28;20516;-75
2020/12/29 10:56:22;;;;;;;14.37;12.00;;;4.50;99.90;;;;;;5072392;28;20524;-75
2020/12/29 10:58:48;;;;;;;16.60;13.10;;;4.50;99.90;;;;;;5070548;28;20183;-75
2020/12/29 11:01:20;;;;;;;14.53;12.90;;;4.50;99.90;;;;;;5082227;28;20183;-75
2020/12/29 11:03:46;;;;;;;16.73;12.17;;;4.50;99.90;;;;;;5062351;28;20226;-74
2020/12/29 11:06:16;;;;;;;19.13;13.10;;;4.50;99.90;;;;;;5055965;28;20434;-75
2020/12/29 11:08:42;;;;;;;19.90;14.47;;;4.50;99.90;;;;;;5073460;28;20721;-75
2020/12/29 11:11:07;;;;;;;16.67;13.40;;;4.60;99.90;;;;;;5075280;28;20433;-75
2020/12/29 11:13:33;;;;;;;14.63;13.07;;;4.60;99.90;;;;;;5072976;28;20442;-75
2020/12/29 11:16:00;;;;;;;21.40;16.60;;;4.60;99.90;;;;;;5072375;28;20194;-75
2020/12/29 11:18:25;;;;;;;18.60;15.33;;;4.60;99.90;;;;;;5061368;28;20482;-75
2020/12/29 11:20:52;;;;;;;16.57;14.87;;;4.60;99.90;;;;;;5074466;28;20954;-75
2020/12/29 11:23:18;;;;;;;18.73;15.37;;;4.70;99.90;;;;;;5074272;28;20301;-75
2020/12/29 11:25:44;;;;;;;18.70;16.80;;;4.70;99.90;;;;;;5052894;28;20516;-75
2020/12/29 11:28:09;;;;;;;18.17;15.10;;;4.80;99.90;;;;;;5081766;28;20190;-75
2020/12/29 11:30:35;;;;;;;19.60;16.20;;;4.80;99.90;;;;;;5073550;28;20182;-74
2020/12/29 11:33:00;;;;;;;17.03;15.33;;;4.80;99.90;;;;;;5053452;28;20188;-75
2020/12/29 11:35:26;;;;;;;23.30;16.43;;;4.80;99.90;;;;;;5072538;28;20223;-75
2020/12/29 11:37:51;;;;;;;19.33;15.43;;;4.80;99.90;;;;;;5073177;28;20187;-75
2020/12/29 11:40:17;;;;;;;20.80;15.17;;;4.80;99.90;;;;;;5073548;28;20615;-75
2020/12/29 11:42:42;;;;;;;20.03;16.57;;;4.80;99.90;;;;;;5055107;28;20294;-75
2020/12/29 11:45:08;;;;;;;18.23;16.33;;;4.80;99.90;;;;;;5053954;28;20187;-75
2020/12/29 11:47:34;;;;;;;20.57;16.33;;;4.80;99.90;;;;;;5057670;28;20278;-75
2020/12/29 11:49:59;;;;;;;18.90;15.87;;;4.80;99.90;;;;;;5073587;28;20186;-75
2020/12/29 11:52:25;;;;;;;18.60;16.60;;;4.80;99.90;;;;;;5073078;28;20215;-75
2020/12/29 11:54:51;;;;;;;20.07;16.50;;;4.70;99.90;;;;;;5073392;28;20265;-75
2020/12/29 11:57:17;;;;;;;20.63;17.97;;;4.70;99.90;;;;;;5077092;28;20441;-74
2020/12/29 11:59:43;;;;;;;21.37;18.40;;;4.70;99.90;;;;;;5054062;28;20528;-75
2020/12/29 12:02:09;;;;;;;23.17;19.77;;;4.70;99.90;;;;;;5072271;28;20541;-75
2020/12/29 12:04:34;;;;;;;24.37;19.07;;;4.70;99.90;;;;;;5053425;28;20278;-75
2020/12/29 12:07:00;;;;;;;22.33;19.93;;;4.70;99.90;;;;;;5071241;28;20741;-75
2020/12/29 12:09:25;;;;;;;22.93;19.43;;;4.70;99.90;;;;;;5070742;28;20275;-75
2020/12/29 12:11:51;;;;;;;20.03;17.03;;;4.70;99.90;;;;;;5070258;28;20203;-75
2020/12/29 12:14:17;;;;;;;25.43;17.13;;;4.80;99.90;;;;;;5057469;28;20201;-75
2020/12/29 12:16:42;;;;;;;20.70;17.97;;;4.80;99.90;;;;;;5073944;28;20183;-75
2020/12/29 12:19:08;;;;;;;21.53;18.67;;;4.80;99.90;;;;;;5058997;28;20449;-75
2020/12/29 12:21:35;;;;;;;20.70;18.60;;;4.90;99.90;;;;;;5072136;28;20206;-75
2020/12/29 12:24:01;;;;;;;18.60;16.20;;;4.90;99.90;;;;;;5071813;28;20203;-75
2020/12/29 12:26:27;;;;;;;21.67;18.03;;;5.00;99.90;;;;;;5070013;28;20515;-75
2020/12/29 12:28:54;;;;;;;18.43;16.50;;;5.00;99.90;;;;;;5058125;28;20449;-74
2020/12/29 12:31:20;;;;;;;19.23;16.57;;;5.00;99.90;;;;;;5071367;28;20453;-75
2020/12/29 12:33:46;;;;;;;16.23;14.20;;;5.10;99.90;;;;;;5072394;28;20471;-75
2020/12/29 12:36:12;;;;;;;22.13;15.07;;;5.10;99.90;;;;;;5071093;28;20926;-75
2020/12/29 12:38:40;;;;;;;17.67;14.10;;;5.20;99.90;;;;;;5052780;28;20440;-75
2020/12/29 12:41:06;;;;;;;18.80;13.90;;;5.20;99.90;;;;;;5076643;28;20933;-75
2020/12/29 12:43:32;;;;;;;17.80;12.83;;;5.20;99.90;;;;;;5051287;28;21096;-75
2020/12/29 12:45:57;;;;;;;16.40;13.90;;;5.20;99.90;;;;;;5073415;28;20440;-75
2020/12/29 12:48:23;;;;;;;16.00;14.30;;;5.20;99.90;;;;;;5078015;28;20192;-75
2020/12/29 12:50:49;;;;;;;18.47;12.83;;;5.20;99.90;;;;;;5050353;28;20288;-74